sensor_id;sensor_type;location;lat;lon;timestamp;P1;durP1;ratioP1;P2;durP2;ratioP2
9884;SDS011;4981;50.966;4.842;2023-02-08T00:00:39;39.77;;;30.90;;
9884;SDS011;4981;50.966;4.842;2023-02-08T00:03:08;20.03;;;13.10;;
9884;SDS011;4981;50.966;4.842;2023-02-08T00:05:36;23.80;;;15.73;;
9884;SDS011;4981;50.966;4.842;2023-02-08T00:08:04;21.13;;;14.63;;
9884;SDS011;4981;50.966;4.842;2023-02-08T00:10:31;53.57;;;40.87;;
9884;SDS011;4981;50.966;4.842;2023-02-08T00:12:59;24.97;;;15.10;;
9884;SDS011;4981;50.966;4.842;2023-02-08T00:15:27;22.90;;;14.60;;
9884;SDS011;4981;50.966;4.842;2023-02-08T00:17:54;19.23;;;12.97;;
9884;SDS011;4981;50.966;4.842;2023-02-08T00:20:24;16.07;;;11.80;;
9884;SDS011;4981;50.966;4.842;2023-02-08T00:22:51;19.87;;;12.63;;
9884;SDS011;4981;50.966;4.842;2023-02-08T00:25:19;16.47;;;11.77;;
9884;SDS011;4981;50.966;4.842;2023-02-08T00:27:47;20.70;;;12.47;;
9884;SDS011;4981;50.966;4.842;2023-02-08T00:30:14;19.37;;;13.17;;
9884;SDS011;4981;50.966;4.842;2023-02-08T00:32:42;19.60;;;11.83;;
9884;SDS011;4981;50.966;4.842;2023-02-08T00:35:09;19.00;;;11.60;;
9884;SDS011;4981;50.966;4.842;2023-02-08T00:37:38;19.23;;;12.70;;
9884;SDS011;4981;50.966;4.842;2023-02-08T00:40:06;20.63;;;11.30;;
9884;SDS011;4981;50.966;4.842;2023-02-08T00:42:34;18.57;;;11.23;;
9884;SDS011;4981;50.966;4.842;2023-02-08T00:45:02;17.97;;;11.70;;
9884;SDS011;4981;50.966;4.842;2023-02-08T00:47:30;19.10;;;10.87;;
9884;SDS011;4981;50.966;4.842;2023-02-08T00:49:58;16.13;;;11.53;;
9884;SDS011;4981;50.966;4.842;2023-02-08T00:52:26;18.60;;;11.40;;
9884;SDS011;4981;50.966;4.842;2023-02-08T00:54:56;17.47;;;10.73;;
9884;SDS011;4981;50.966;4.842;2023-02-08T00:57:23;15.53;;;10.70;;
9884;SDS011;4981;50.966;4.842;2023-02-08T00:59:51;20.57;;;11.50;;
9884;SDS011;4981;50.966;4.842;2023-02-08T01:02:19;17.47;;;11.83;;
9884;SDS011;4981;50.966;4.842;2023-02-08T01:04:46;23.63;;;11.67;;
9884;SDS011;4981;50.966;4.842;2023-02-08T01:07:14;18.50;;;11.33;;
9884;SDS011;4981;50.966;4.842;2023-02-08T01:09:42;18.33;;;11.57;;
9884;SDS011;4981;50.966;4.842;2023-02-08T01:12:12;25.40;;;14.97;;
9884;SDS011;4981;50.966;4.842;2023-02-08T01:14:39;25.30;;;15.70;;
9884;SDS011;4981;50.966;4.842;2023-02-08T01:17:07;18.17;;;12.17;;
9884;SDS011;4981;50.966;4.842;2023-02-08T01:19:35;31.10;;;16.90;;
9884;SDS011;4981;50.966;4.842;2023-02-08T01:22:02;28.93;;;16.60;;
9884;SDS011;4981;50.966;4.842;2023-02-08T01:24:30;35.20;;;19.53;;
9884;SDS011;4981;50.966;4.842;2023-02-08T01:26:57;17.90;;;11.43;;
9884;SDS011;4981;50.966;4.842;2023-02-08T01:29:26;19.03;;;11.90;;
9884;SDS011;4981;50.966;4.842;2023-02-08T01:31:54;17.77;;;11.90;;
9884;SDS011;4981;50.966;4.842;2023-02-08T01:34:21;19.80;;;11.20;;
9884;SDS011;4981;50.966;4.842;2023-02-08T01:36:48;18.77;;;11.90;;
9884;SDS011;4981;50.966;4.842;2023-02-08T01:39:16;183.00;;;154.27;;
9884;SDS011;4981;50.966;4.842;2023-02-08T01:41:43;127.13;;;99.37;;
9884;SDS011;4981;50.966;4.842;2023-02-08T01:47:17;199.80;;;161.13;;
9884;SDS011;4981;50.966;4.842;2023-02-08T01:49:45;166.53;;;132.40;;
9884;SDS011;4981;50.966;4.842;2023-02-08T01:52:13;182.97;;;160.67;;
9884;SDS011;4981;50.966;4.842;2023-02-08T01:54:45;172.63;;;139.40;;
9884;SDS011;4981;50.966;4.842;2023-02-08T01:57:16;189.63;;;169.77;;
9884;SDS011;4981;50.966;4.842;2023-02-08T01:59:46;162.17;;;134.10;;
9884;SDS011;4981;50.966;4.842;2023-02-08T02:02:19;178.07;;;159.13;;
9884;SDS011;4981;50.966;4.842;2023-02-08T02:04:47;155.97;;;129.97;;
9884;SDS011;4981;50.966;4.842;2023-02-08T02:07:17;108.63;;;84.37;;
9884;SDS011;4981;50.966;4.842;2023-02-08T02:09:46;17.20;;;10.43;;
9884;SDS011;4981;50.966;4.842;2023-02-08T02:12:18;16.90;;;10.33;;
9884;SDS011;4981;50.966;4.842;2023-02-08T02:14:46;21.13;;;12.20;;
9884;SDS011;4981;50.966;4.842;2023-02-08T02:17:14;24.60;;;14.63;;
9884;SDS011;4981;50.966;4.842;2023-02-08T02:19:47;21.83;;;11.97;;
9884;SDS011;4981;50.966;4.842;2023-02-08T02:22:35;21.27;;;12.67;;
9884;SDS011;4981;50.966;4.842;2023-02-08T02:25:31;39.43;;;24.50;;
9884;SDS011;4981;50.966;4.842;2023-02-08T02:28:13;122.77;;;93.00;;
9884;SDS011;4981;50.966;4.842;2023-02-08T02:33:31;58.27;;;40.70;;
9884;SDS011;4981;50.966;4.842;2023-02-08T02:36:02;22.07;;;12.47;;
9884;SDS011;4981;50.966;4.842;2023-02-08T02:38:34;27.17;;;14.40;;
9884;SDS011;4981;50.966;4.842;2023-02-08T02:41:05;25.40;;;13.93;;
9884;SDS011;4981;50.966;4.842;2023-02-08T02:43:37;31.17;;;14.10;;
9884;SDS011;4981;50.966;4.842;2023-02-08T02:46:11;31.73;;;15.80;;
9884;SDS011;4981;50.966;4.842;2023-02-08T02:48:43;24.23;;;13.93;;
9884;SDS011;4981;50.966;4.842;2023-02-08T02:51:16;32.67;;;13.93;;
9884;SDS011;4981;50.966;4.842;2023-02-08T02:53:46;30.80;;;15.07;;
9884;SDS011;4981;50.966;4.842;2023-02-08T02:56:17;25.40;;;14.07;;
9884;SDS011;4981;50.966;4.842;2023-02-08T02:58:47;25.43;;;12.63;;
9884;SDS011;4981;50.966;4.842;2023-02-08T03:01:20;22.07;;;12.50;;
9884;SDS011;4981;50.966;4.842;2023-02-08T03:03:52;21.00;;;11.97;;
9884;SDS011;4981;50.966;4.842;2023-02-08T03:06:22;19.00;;;11.33;;
9884;SDS011;4981;50.966;4.842;2023-02-08T03:09:07;17.47;;;11.23;;
9884;SDS011;4981;50.966;4.842;2023-02-08T03:11:37;16.60;;;10.63;;
9884;SDS011;4981;50.966;4.842;2023-02-08T03:14:13;14.13;;;9.73;;
9884;SDS011;4981;50.966;4.842;2023-02-08T03:16:51;14.63;;;10.50;;
9884;SDS011;4981;50.966;4.842;2023-02-08T03:19:25;17.00;;;10.63;;
9884;SDS011;4981;50.966;4.842;2023-02-08T03:21:54;20.10;;;11.23;;
9884;SDS011;4981;50.966;4.842;2023-02-08T03:24:24;17.90;;;11.00;;
9884;SDS011;4981;50.966;4.842;2023-02-08T03:26:56;15.87;;;10.17;;
9884;SDS011;4981;50.966;4.842;2023-02-08T03:29:26;15.60;;;9.90;;
9884;SDS011;4981;50.966;4.842;2023-02-08T03:31:58;18.10;;;10.43;;
9884;SDS011;4981;50.966;4.842;2023-02-08T03:34:30;16.67;;;10.50;;
9884;SDS011;4981;50.966;4.842;2023-02-08T03:37:00;18.53;;;10.80;;
9884;SDS011;4981;50.966;4.842;2023-02-08T03:39:29;14.80;;;9.93;;
9884;SDS011;4981;50.966;4.842;2023-02-08T03:41:59;16.60;;;10.77;;
9884;SDS011;4981;50.966;4.842;2023-02-08T03:44:31;14.43;;;9.90;;
9884;SDS011;4981;50.966;4.842;2023-02-08T03:47:01;17.33;;;10.20;;
9884;SDS011;4981;50.966;4.842;2023-02-08T03:49:32;18.17;;;10.30;;
9884;SDS011;4981;50.966;4.842;2023-02-08T03:52:02;15.30;;;10.43;;
9884;SDS011;4981;50.966;4.842;2023-02-08T03:54:31;19.40;;;11.00;;
9884;SDS011;4981;50.966;4.842;2023-02-08T03:57:02;18.57;;;10.97;;
9884;SDS011;4981;50.966;4.842;2023-02-08T03:59:33;19.00;;;11.23;;
9884;SDS011;4981;50.966;4.842;2023-02-08T04:02:02;20.60;;;11.13;;
9884;SDS011;4981;50.966;4.842;2023-02-08T04:04:34;18.17;;;11.03;;
9884;SDS011;4981;50.966;4.842;2023-02-08T04:07:02;16.93;;;11.27;;
9884;SDS011;4981;50.966;4.842;2023-02-08T04:09:29;16.53;;;9.93;;
9884;SDS011;4981;50.966;4.842;2023-02-08T04:11:57;18.27;;;10.70;;
9884;SDS011;4981;50.966;4.842;2023-02-08T04:14:24;16.60;;;10.80;;
9884;SDS011;4981;50.966;4.842;2023-02-08T04:16:52;17.73;;;10.43;;
9884;SDS011;4981;50.966;4.842;2023-02-08T04:19:20;16.00;;;10.57;;
9884;SDS011;4981;50.966;4.842;2023-02-08T04:21:49;18.77;;;10.33;;
9884;SDS011;4981;50.966;4.842;2023-02-08T04:24:16;18.63;;;10.70;;
9884;SDS011;4981;50.966;4.842;2023-02-08T04:26:44;19.17;;;10.70;;
9884;SDS011;4981;50.966;4.842;2023-02-08T04:29:11;18.60;;;10.80;;
9884;SDS011;4981;50.966;4.842;2023-02-08T04:31:39;17.50;;;10.60;;
9884;SDS011;4981;50.966;4.842;2023-02-08T04:34:06;16.80;;;10.67;;
9884;SDS011;4981;50.966;4.842;2023-02-08T04:36:34;17.80;;;10.20;;
9884;SDS011;4981;50.966;4.842;2023-02-08T04:39:04;17.30;;;10.97;;
9884;SDS011;4981;50.966;4.842;2023-02-08T04:41:31;15.63;;;9.73;;
9884;SDS011;4981;50.966;4.842;2023-02-08T04:43:59;16.67;;;10.97;;
9884;SDS011;4981;50.966;4.842;2023-02-08T04:46:27;16.20;;;10.40;;
9884;SDS011;4981;50.966;4.842;2023-02-08T04:48:54;18.63;;;10.27;;
9884;SDS011;4981;50.966;4.842;2023-02-08T04:51:22;16.40;;;10.23;;
9884;SDS011;4981;50.966;4.842;2023-02-08T04:53:50;21.30;;;10.50;;
9884;SDS011;4981;50.966;4.842;2023-02-08T04:56:19;17.50;;;10.53;;
9884;SDS011;4981;50.966;4.842;2023-02-08T04:58:47;19.43;;;11.37;;
9884;SDS011;4981;50.966;4.842;2023-02-08T05:01:14;16.70;;;10.40;;
9884;SDS011;4981;50.966;4.842;2023-02-08T05:03:42;15.33;;;10.07;;
9884;SDS011;4981;50.966;4.842;2023-02-08T05:06:09;17.73;;;9.97;;
9884;SDS011;4981;50.966;4.842;2023-02-08T05:08:37;23.07;;;10.47;;
9884;SDS011;4981;50.966;4.842;2023-02-08T05:11:05;17.20;;;10.70;;
9884;SDS011;4981;50.966;4.842;2023-02-08T05:13:34;14.63;;;10.40;;
9884;SDS011;4981;50.966;4.842;2023-02-08T05:16:02;20.10;;;10.87;;
9884;SDS011;4981;50.966;4.842;2023-02-08T05:18:29;21.57;;;11.13;;
9884;SDS011;4981;50.966;4.842;2023-02-08T05:20:57;16.43;;;11.03;;
9884;SDS011;4981;50.966;4.842;2023-02-08T05:23:25;19.17;;;10.20;;
9884;SDS011;4981;50.966;4.842;2023-02-08T05:25:53;17.97;;;10.90;;
9884;SDS011;4981;50.966;4.842;2023-02-08T05:28:21;17.63;;;10.73;;
9884;SDS011;4981;50.966;4.842;2023-02-08T05:30:50;20.43;;;11.67;;
9884;SDS011;4981;50.966;4.842;2023-02-08T05:33:18;17.50;;;10.73;;
9884;SDS011;4981;50.966;4.842;2023-02-08T05:35:45;16.57;;;10.97;;
9884;SDS011;4981;50.966;4.842;2023-02-08T05:38:13;16.07;;;10.70;;
9884;SDS011;4981;50.966;4.842;2023-02-08T05:40:41;20.27;;;10.57;;
9884;SDS011;4981;50.966;4.842;2023-02-08T05:43:08;20.03;;;10.40;;
9884;SDS011;4981;50.966;4.842;2023-02-08T05:45:36;22.03;;;11.73;;
9884;SDS011;4981;50.966;4.842;2023-02-08T05:48:05;29.07;;;13.50;;
9884;SDS011;4981;50.966;4.842;2023-02-08T05:50:33;23.43;;;12.90;;
9884;SDS011;4981;50.966;4.842;2023-02-08T05:53:00;24.53;;;12.40;;
9884;SDS011;4981;50.966;4.842;2023-02-08T05:55:28;20.80;;;13.03;;
9884;SDS011;4981;50.966;4.842;2023-02-08T05:57:56;20.57;;;11.63;;
9884;SDS011;4981;50.966;4.842;2023-02-08T06:00:23;15.00;;;10.53;;
9884;SDS011;4981;50.966;4.842;2023-02-08T06:02:51;21.33;;;12.13;;
9884;SDS011;4981;50.966;4.842;2023-02-08T06:05:20;17.90;;;11.13;;
9884;SDS011;4981;50.966;4.842;2023-02-08T06:07:48;18.13;;;11.30;;
9884;SDS011;4981;50.966;4.842;2023-02-08T06:10:16;16.33;;;11.03;;
9884;SDS011;4981;50.966;4.842;2023-02-08T06:12:43;18.83;;;11.80;;
9884;SDS011;4981;50.966;4.842;2023-02-08T06:15:11;21.57;;;11.57;;
9884;SDS011;4981;50.966;4.842;2023-02-08T06:17:39;17.57;;;10.93;;
9884;SDS011;4981;50.966;4.842;2023-02-08T06:20:07;20.80;;;13.47;;
9884;SDS011;4981;50.966;4.842;2023-02-08T06:22:36;14.03;;;10.13;;
9884;SDS011;4981;50.966;4.842;2023-02-08T06:25:04;15.73;;;10.20;;
9884;SDS011;4981;50.966;4.842;2023-02-08T06:27:32;18.23;;;10.43;;
9884;SDS011;4981;50.966;4.842;2023-02-08T06:30:00;55.70;;;31.33;;
9884;SDS011;4981;50.966;4.842;2023-02-08T06:32:27;18.43;;;10.63;;
9884;SDS011;4981;50.966;4.842;2023-02-08T06:34:55;19.47;;;10.73;;
9884;SDS011;4981;50.966;4.842;2023-02-08T06:37:23;17.63;;;10.57;;
9884;SDS011;4981;50.966;4.842;2023-02-08T06:39:52;17.17;;;10.73;;
9884;SDS011;4981;50.966;4.842;2023-02-08T06:42:20;21.10;;;10.70;;
9884;SDS011;4981;50.966;4.842;2023-02-08T06:44:47;16.87;;;9.73;;
9884;SDS011;4981;50.966;4.842;2023-02-08T06:47:17;21.77;;;14.20;;
9884;SDS011;4981;50.966;4.842;2023-02-08T06:49:45;17.80;;;10.80;;
9884;SDS011;4981;50.966;4.842;2023-02-08T06:52:12;21.43;;;11.53;;
9884;SDS011;4981;50.966;4.842;2023-02-08T06:54:40;21.57;;;11.27;;
9884;SDS011;4981;50.966;4.842;2023-02-08T06:57:09;19.97;;;12.93;;
9884;SDS011;4981;50.966;4.842;2023-02-08T06:59:37;18.17;;;10.80;;
9884;SDS011;4981;50.966;4.842;2023-02-08T07:02:05;16.10;;;9.90;;
9884;SDS011;4981;50.966;4.842;2023-02-08T07:04:33;14.47;;;8.77;;
9884;SDS011;4981;50.966;4.842;2023-02-08T07:07:01;16.77;;;9.67;;
9884;SDS011;4981;50.966;4.842;2023-02-08T07:09:28;18.37;;;10.77;;
9884;SDS011;4981;50.966;4.842;2023-02-08T07:11:56;14.00;;;9.60;;
9884;SDS011;4981;50.966;4.842;2023-02-08T07:14:25;19.73;;;9.97;;
9884;SDS011;4981;50.966;4.842;2023-02-08T07:16:52;19.10;;;9.20;;
9884;SDS011;4981;50.966;4.842;2023-02-08T07:19:20;24.07;;;12.43;;
9884;SDS011;4981;50.966;4.842;2023-02-08T07:21:48;15.10;;;8.97;;
9884;SDS011;4981;50.966;4.842;2023-02-08T07:24:15;16.00;;;9.83;;
9884;SDS011;4981;50.966;4.842;2023-02-08T07:26:43;17.13;;;10.47;;
9884;SDS011;4981;50.966;4.842;2023-02-08T07:29:11;14.87;;;9.40;;
9884;SDS011;4981;50.966;4.842;2023-02-08T07:31:40;15.23;;;9.83;;
9884;SDS011;4981;50.966;4.842;2023-02-08T07:34:08;14.70;;;9.33;;
9884;SDS011;4981;50.966;4.842;2023-02-08T07:36:35;18.33;;;9.40;;
9884;SDS011;4981;50.966;4.842;2023-02-08T07:39:03;15.47;;;8.53;;
9884;SDS011;4981;50.966;4.842;2023-02-08T07:41:31;14.13;;;9.80;;
9884;SDS011;4981;50.966;4.842;2023-02-08T07:43:58;13.70;;;9.07;;
9884;SDS011;4981;50.966;4.842;2023-02-08T07:46:26;13.37;;;9.10;;
9884;SDS011;4981;50.966;4.842;2023-02-08T07:48:55;13.60;;;9.50;;
9884;SDS011;4981;50.966;4.842;2023-02-08T07:51:23;18.63;;;9.50;;
9884;SDS011;4981;50.966;4.842;2023-02-08T07:53:50;15.37;;;9.23;;
9884;SDS011;4981;50.966;4.842;2023-02-08T07:56:18;13.00;;;8.27;;
9884;SDS011;4981;50.966;4.842;2023-02-08T07:58:45;15.47;;;8.60;;
9884;SDS011;4981;50.966;4.842;2023-02-08T08:01:13;16.93;;;8.57;;
9884;SDS011;4981;50.966;4.842;2023-02-08T08:03:41;15.87;;;8.93;;
9884;SDS011;4981;50.966;4.842;2023-02-08T08:06:10;16.43;;;8.63;;
9884;SDS011;4981;50.966;4.842;2023-02-08T08:08:37;18.90;;;8.87;;
9884;SDS011;4981;50.966;4.842;2023-02-08T08:11:05;15.97;;;8.60;;
9884;SDS011;4981;50.966;4.842;2023-02-08T08:13:32;12.30;;;8.07;;
9884;SDS011;4981;50.966;4.842;2023-02-08T08:16:00;14.17;;;8.53;;
9884;SDS011;4981;50.966;4.842;2023-02-08T08:18:28;13.53;;;8.20;;
9884;SDS011;4981;50.966;4.842;2023-02-08T08:20:55;16.30;;;8.37;;
9884;SDS011;4981;50.966;4.842;2023-02-08T08:23:25;13.27;;;9.20;;
9884;SDS011;4981;50.966;4.842;2023-02-08T08:25:53;17.00;;;7.73;;
9884;SDS011;4981;50.966;4.842;2023-02-08T08:28:20;12.97;;;8.33;;
9884;SDS011;4981;50.966;4.842;2023-02-08T08:30:48;15.40;;;7.80;;
9884;SDS011;4981;50.966;4.842;2023-02-08T08:33:16;14.67;;;8.10;;
9884;SDS011;4981;50.966;4.842;2023-02-08T08:35:43;16.57;;;8.20;;
9884;SDS011;4981;50.966;4.842;2023-02-08T08:38:11;12.07;;;7.70;;
9884;SDS011;4981;50.966;4.842;2023-02-08T08:40:40;12.53;;;8.87;;
9884;SDS011;4981;50.966;4.842;2023-02-08T08:43:08;13.37;;;7.83;;
9884;SDS011;4981;50.966;4.842;2023-02-08T08:45:35;12.87;;;7.70;;
9884;SDS011;4981;50.966;4.842;2023-02-08T08:48:03;11.80;;;7.97;;
9884;SDS011;4981;50.966;4.842;2023-02-08T08:50:31;14.60;;;7.57;;
9884;SDS011;4981;50.966;4.842;2023-02-08T08:52:58;13.37;;;7.50;;
9884;SDS011;4981;50.966;4.842;2023-02-08T08:55:31;12.07;;;7.07;;
9884;SDS011;4981;50.966;4.842;2023-02-08T08:58:03;17.47;;;7.47;;
9884;SDS011;4981;50.966;4.842;2023-02-08T09:00:30;17.60;;;8.27;;
9884;SDS011;4981;50.966;4.842;2023-02-08T09:02:58;12.40;;;7.47;;
9884;SDS011;4981;50.966;4.842;2023-02-08T09:05:25;9.67;;;7.03;;
9884;SDS011;4981;50.966;4.842;2023-02-08T09:07:53;13.53;;;7.67;;
9884;SDS011;4981;50.966;4.842;2023-02-08T09:10:21;13.67;;;7.90;;
9884;SDS011;4981;50.966;4.842;2023-02-08T09:12:48;9.80;;;7.40;;
9884;SDS011;4981;50.966;4.842;2023-02-08T09:15:18;10.73;;;6.97;;
9884;SDS011;4981;50.966;4.842;2023-02-08T09:17:46;14.43;;;8.70;;
9884;SDS011;4981;50.966;4.842;2023-02-08T09:20:14;12.60;;;7.30;;
9884;SDS011;4981;50.966;4.842;2023-02-08T09:22:42;11.40;;;7.73;;
9884;SDS011;4981;50.966;4.842;2023-02-08T09:25:09;10.97;;;7.60;;
9884;SDS011;4981;50.966;4.842;2023-02-08T09:27:37;13.03;;;7.50;;
9884;SDS011;4981;50.966;4.842;2023-02-08T09:30:05;16.50;;;7.33;;
9884;SDS011;4981;50.966;4.842;2023-02-08T09:32:34;10.63;;;7.30;;
9884;SDS011;4981;50.966;4.842;2023-02-08T09:35:04;13.10;;;7.20;;
9884;SDS011;4981;50.966;4.842;2023-02-08T09:37:32;10.30;;;6.93;;
9884;SDS011;4981;50.966;4.842;2023-02-08T09:39:59;9.63;;;6.83;;
9884;SDS011;4981;50.966;4.842;2023-02-08T09:42:28;9.30;;;6.47;;
9884;SDS011;4981;50.966;4.842;2023-02-08T09:45:13;8.40;;;6.20;;
9884;SDS011;4981;50.966;4.842;2023-02-08T09:47:58;9.47;;;6.57;;
9884;SDS011;4981;50.966;4.842;2023-02-08T09:50:27;10.93;;;6.47;;
9884;SDS011;4981;50.966;4.842;2023-02-08T09:53:00;9.50;;;6.03;;
9884;SDS011;4981;50.966;4.842;2023-02-08T09:55:33;9.73;;;6.30;;
9884;SDS011;4981;50.966;4.842;2023-02-08T09:58:03;12.33;;;6.30;;
9884;SDS011;4981;50.966;4.842;2023-02-08T10:00:33;9.93;;;6.33;;
9884;SDS011;4981;50.966;4.842;2023-02-08T10:03:03;10.53;;;5.83;;
9884;SDS011;4981;50.966;4.842;2023-02-08T10:05:31;8.90;;;5.73;;
9884;SDS011;4981;50.966;4.842;2023-02-08T10:07:59;11.07;;;5.93;;
9884;SDS011;4981;50.966;4.842;2023-02-08T10:10:31;8.97;;;6.13;;
9884;SDS011;4981;50.966;4.842;2023-02-08T10:13:10;7.57;;;5.40;;
9884;SDS011;4981;50.966;4.842;2023-02-08T10:15:45;8.93;;;6.03;;
9884;SDS011;4981;50.966;4.842;2023-02-08T10:18:21;7.63;;;5.63;;
9884;SDS011;4981;50.966;4.842;2023-02-08T10:21:06;8.53;;;5.60;;
9884;SDS011;4981;50.966;4.842;2023-02-08T10:23:42;9.10;;;5.53;;
9884;SDS011;4981;50.966;4.842;2023-02-08T10:26:23;7.90;;;5.60;;
9884;SDS011;4981;50.966;4.842;2023-02-08T10:29:12;8.67;;;5.13;;
9884;SDS011;4981;50.966;4.842;2023-02-08T10:31:55;7.67;;;4.67;;
9884;SDS011;4981;50.966;4.842;2023-02-08T10:34:39;9.37;;;5.80;;
9884;SDS011;4981;50.966;4.842;2023-02-08T10:37:15;10.87;;;5.27;;
9884;SDS011;4981;50.966;4.842;2023-02-08T10:39:44;7.03;;;4.53;;
9884;SDS011;4981;50.966;4.842;2023-02-08T10:42:13;8.03;;;4.80;;
9884;SDS011;4981;50.966;4.842;2023-02-08T10:44:48;10.13;;;5.30;;
9884;SDS011;4981;50.966;4.842;2023-02-08T10:47:31;8.60;;;4.87;;
9884;SDS011;4981;50.966;4.842;2023-02-08T10:50:08;10.10;;;4.93;;
9884;SDS011;4981;50.966;4.842;2023-02-08T10:52:46;6.60;;;4.70;;
9884;SDS011;4981;50.966;4.842;2023-02-08T10:55:14;11.20;;;5.20;;
9884;SDS011;4981;50.966;4.842;2023-02-08T10:57:42;6.50;;;4.30;;
9884;SDS011;4981;50.966;4.842;2023-02-08T11:00:16;6.37;;;4.73;;
9884;SDS011;4981;50.966;4.842;2023-02-08T11:02:44;6.97;;;4.20;;
9884;SDS011;4981;50.966;4.842;2023-02-08T11:05:16;6.60;;;4.47;;
9884;SDS011;4981;50.966;4.842;2023-02-08T11:07:45;6.60;;;4.27;;
9884;SDS011;4981;50.966;4.842;2023-02-08T11:10:14;8.00;;;5.53;;
9884;SDS011;4981;50.966;4.842;2023-02-08T11:12:42;9.20;;;3.80;;
9884;SDS011;4981;50.966;4.842;2023-02-08T11:15:22;6.10;;;4.10;;
9884;SDS011;4981;50.966;4.842;2023-02-08T11:17:53;5.30;;;4.10;;
9884;SDS011;4981;50.966;4.842;2023-02-08T11:20:26;6.90;;;4.37;;
9884;SDS011;4981;50.966;4.842;2023-02-08T11:22:57;7.77;;;4.40;;
9884;SDS011;4981;50.966;4.842;2023-02-08T11:25:33;8.73;;;4.00;;
9884;SDS011;4981;50.966;4.842;2023-02-08T11:28:04;5.63;;;3.70;;
9884;SDS011;4981;50.966;4.842;2023-02-08T11:30:53;6.33;;;4.10;;
9884;SDS011;4981;50.966;4.842;2023-02-08T11:33:22;5.47;;;4.33;;
9884;SDS011;4981;50.966;4.842;2023-02-08T11:35:59;6.77;;;4.43;;
9884;SDS011;4981;50.966;4.842;2023-02-08T11:38:32;6.87;;;4.20;;
9884;SDS011;4981;50.966;4.842;2023-02-08T11:41:01;9.20;;;4.20;;
9884;SDS011;4981;50.966;4.842;2023-02-08T11:43:31;6.00;;;4.27;;
9884;SDS011;4981;50.966;4.842;2023-02-08T11:46:01;4.67;;;3.23;;
9884;SDS011;4981;50.966;4.842;2023-02-08T11:48:37;5.37;;;3.70;;
9884;SDS011;4981;50.966;4.842;2023-02-08T11:51:08;5.27;;;4.00;;
9884;SDS011;4981;50.966;4.842;2023-02-08T11:53:40;4.33;;;3.43;;
9884;SDS011;4981;50.966;4.842;2023-02-08T11:56:16;4.17;;;3.13;;
9884;SDS011;4981;50.966;4.842;2023-02-08T11:58:58;4.17;;;3.00;;
9884;SDS011;4981;50.966;4.842;2023-02-08T12:01:29;5.20;;;3.10;;
9884;SDS011;4981;50.966;4.842;2023-02-08T12:03:58;3.83;;;2.60;;
9884;SDS011;4981;50.966;4.842;2023-02-08T12:12:26;3.23;;;2.27;;
9884;SDS011;4981;50.966;4.842;2023-02-08T12:14:59;4.23;;;2.43;;
9884;SDS011;4981;50.966;4.842;2023-02-08T12:17:40;5.03;;;2.90;;
9884;SDS011;4981;50.966;4.842;2023-02-08T12:23:28;4.73;;;2.60;;
9884;SDS011;4981;50.966;4.842;2023-02-08T12:26:01;2.70;;;2.20;;
9884;SDS011;4981;50.966;4.842;2023-02-08T12:28:37;2.70;;;2.10;;
9884;SDS011;4981;50.966;4.842;2023-02-08T12:31:18;3.10;;;2.50;;
9884;SDS011;4981;50.966;4.842;2023-02-08T12:33:55;3.17;;;2.37;;
9884;SDS011;4981;50.966;4.842;2023-02-08T12:36:30;3.37;;;2.30;;
9884;SDS011;4981;50.966;4.842;2023-02-08T12:39:07;2.37;;;2.17;;
9884;SDS011;4981;50.966;4.842;2023-02-08T12:42:02;5.83;;;4.33;;
9884;SDS011;4981;50.966;4.842;2023-02-08T12:44:36;7.13;;;5.30;;
9884;SDS011;4981;50.966;4.842;2023-02-08T12:47:07;3.40;;;2.60;;
9884;SDS011;4981;50.966;4.842;2023-02-08T12:49:53;4.67;;;2.87;;
9884;SDS011;4981;50.966;4.842;2023-02-08T12:52:25;3.67;;;3.20;;
9884;SDS011;4981;50.966;4.842;2023-02-08T12:55:02;4.50;;;2.97;;
9884;SDS011;4981;50.966;4.842;2023-02-08T12:57:39;2.97;;;2.60;;
9884;SDS011;4981;50.966;4.842;2023-02-08T13:00:15;3.47;;;2.30;;
9884;SDS011;4981;50.966;4.842;2023-02-08T13:02:45;3.33;;;2.47;;
9884;SDS011;4981;50.966;4.842;2023-02-08T13:05:21;3.43;;;2.30;;
9884;SDS011;4981;50.966;4.842;2023-02-08T13:07:50;4.70;;;3.20;;
9884;SDS011;4981;50.966;4.842;2023-02-08T13:10:27;3.23;;;2.47;;
9884;SDS011;4981;50.966;4.842;2023-02-08T13:12:59;4.83;;;2.93;;
9884;SDS011;4981;50.966;4.842;2023-02-08T13:15:35;5.63;;;3.13;;
9884;SDS011;4981;50.966;4.842;2023-02-08T13:18:09;3.80;;;2.60;;
9884;SDS011;4981;50.966;4.842;2023-02-08T13:20:39;5.23;;;3.20;;
9884;SDS011;4981;50.966;4.842;2023-02-08T13:23:12;4.13;;;3.20;;
9884;SDS011;4981;50.966;4.842;2023-02-08T13:25:45;4.83;;;3.20;;
9884;SDS011;4981;50.966;4.842;2023-02-08T13:28:16;4.27;;;3.40;;
9884;SDS011;4981;50.966;4.842;2023-02-08T13:30:46;3.83;;;2.97;;
9884;SDS011;4981;50.966;4.842;2023-02-08T13:33:27;4.73;;;3.57;;
9884;SDS011;4981;50.966;4.842;2023-02-08T13:35:58;6.20;;;3.27;;
9884;SDS011;4981;50.966;4.842;2023-02-08T13:38:27;3.60;;;2.47;;
9884;SDS011;4981;50.966;4.842;2023-02-08T13:43:48;5.07;;;3.83;;
9884;SDS011;4981;50.966;4.842;2023-02-08T13:46:19;6.17;;;3.90;;
9884;SDS011;4981;50.966;4.842;2023-02-08T13:48:49;5.60;;;3.40;;
9884;SDS011;4981;50.966;4.842;2023-02-08T13:54:17;9.43;;;3.80;;
9884;SDS011;4981;50.966;4.842;2023-02-08T13:56:46;7.07;;;4.40;;
9884;SDS011;4981;50.966;4.842;2023-02-08T13:59:25;5.87;;;3.10;;
9884;SDS011;4981;50.966;4.842;2023-02-08T14:04:44;4.03;;;3.07;;
9884;SDS011;4981;50.966;4.842;2023-02-08T14:07:23;6.13;;;2.97;;
9884;SDS011;4981;50.966;4.842;2023-02-08T14:10:17;3.87;;;2.93;;
9884;SDS011;4981;50.966;4.842;2023-02-08T14:15:43;4.67;;;2.90;;
9884;SDS011;4981;50.966;4.842;2023-02-08T14:18:18;4.37;;;3.40;;
9884;SDS011;4981;50.966;4.842;2023-02-08T14:21:02;3.33;;;2.67;;
9884;SDS011;4981;50.966;4.842;2023-02-08T14:23:33;4.67;;;2.87;;
9884;SDS011;4981;50.966;4.842;2023-02-08T14:26:04;5.37;;;3.17;;
9884;SDS011;4981;50.966;4.842;2023-02-08T14:28:36;4.30;;;3.13;;
9884;SDS011;4981;50.966;4.842;2023-02-08T14:31:09;4.17;;;2.90;;
9884;SDS011;4981;50.966;4.842;2023-02-08T14:33:38;3.47;;;2.97;;
9884;SDS011;4981;50.966;4.842;2023-02-08T14:36:18;3.70;;;2.97;;
9884;SDS011;4981;50.966;4.842;2023-02-08T14:38:51;4.27;;;2.97;;
9884;SDS011;4981;50.966;4.842;2023-02-08T14:41:42;3.60;;;2.60;;
9884;SDS011;4981;50.966;4.842;2023-02-08T14:46:58;3.53;;;2.97;;
9884;SDS011;4981;50.966;4.842;2023-02-08T14:49:25;5.40;;;3.10;;
9884;SDS011;4981;50.966;4.842;2023-02-08T14:51:54;4.67;;;3.90;;
9884;SDS011;4981;50.966;4.842;2023-02-08T14:54:26;4.50;;;3.70;;
9884;SDS011;4981;50.966;4.842;2023-02-08T14:56:57;7.00;;;6.03;;
9884;SDS011;4981;50.966;4.842;2023-02-08T14:59:28;4.83;;;2.70;;
9884;SDS011;4981;50.966;4.842;2023-02-08T15:01:59;5.53;;;4.23;;
9884;SDS011;4981;50.966;4.842;2023-02-08T15:04:27;3.80;;;3.37;;
9884;SDS011;4981;50.966;4.842;2023-02-08T15:09:41;5.07;;;3.13;;
9884;SDS011;4981;50.966;4.842;2023-02-08T15:12:10;3.23;;;2.20;;
9884;SDS011;4981;50.966;4.842;2023-02-08T15:14:40;6.00;;;4.03;;
9884;SDS011;4981;50.966;4.842;2023-02-08T15:17:17;5.57;;;3.10;;
9884;SDS011;4981;50.966;4.842;2023-02-08T15:19:46;3.43;;;2.60;;
9884;SDS011;4981;50.966;4.842;2023-02-08T15:22:15;3.80;;;2.47;;
9884;SDS011;4981;50.966;4.842;2023-02-08T15:24:48;2.97;;;2.00;;
9884;SDS011;4981;50.966;4.842;2023-02-08T15:27:18;2.63;;;2.33;;
9884;SDS011;4981;50.966;4.842;2023-02-08T15:29:46;4.10;;;2.90;;
9884;SDS011;4981;50.966;4.842;2023-02-08T15:32:16;3.20;;;2.53;;
9884;SDS011;4981;50.966;4.842;2023-02-08T15:34:45;10.47;;;3.53;;
9884;SDS011;4981;50.966;4.842;2023-02-08T15:37:14;3.43;;;2.23;;
9884;SDS011;4981;50.966;4.842;2023-02-08T15:39:43;3.03;;;2.70;;
9884;SDS011;4981;50.966;4.842;2023-02-08T15:42:14;5.60;;;3.17;;
9884;SDS011;4981;50.966;4.842;2023-02-08T15:44:42;3.97;;;2.60;;
9884;SDS011;4981;50.966;4.842;2023-02-08T15:47:12;3.73;;;2.27;;
9884;SDS011;4981;50.966;4.842;2023-02-08T15:49:44;4.20;;;2.80;;
9884;SDS011;4981;50.966;4.842;2023-02-08T15:52:14;4.13;;;3.20;;